sensor_id;sensor_type;location;lat;lon;timestamp;P1;durP1;ratioP1;P2;durP2;ratioP2
78013;SDS011;67222;50.182;8.734;2023-02-03T05:30:11;2.63;;;1.30;;
78013;SDS011;67222;50.182;8.734;2023-02-03T05:32:37;3.10;;;1.30;;
78013;SDS011;67222;50.182;8.734;2023-02-03T05:35:02;1.80;;;0.97;;
78013;SDS011;67222;50.182;8.734;2023-02-03T05:37:27;2.60;;;1.40;;
78013;SDS011;67222;50.182;8.734;2023-02-03T05:39:53;3.10;;;1.42;;
78013;SDS011;67222;50.182;8.734;2023-02-03T05:42:38;2.75;;;1.25;;
78013;SDS011;67222;50.182;8.734;2023-02-03T05:45:03;3.03;;;1.43;;
78013;SDS011;67222;50.182;8.734;2023-02-03T05:47:29;3.80;;;1.40;;
78013;SDS011;67222;50.182;8.734;2023-02-03T05:49:54;2.90;;;1.40;;
78013;SDS011;67222;50.182;8.734;2023-02-03T05:52:19;2.10;;;1.20;;
78013;SDS011;67222;50.182;8.734;2023-02-03T05:54:45;3.10;;;1.43;;
78013;SDS011;67222;50.182;8.734;2023-02-03T05:57:10;3.23;;;1.20;;
78013;SDS011;67222;50.182;8.734;2023-02-03T05:59:37;3.22;;;1.02;;
78013;SDS011;67222;50.182;8.734;2023-02-03T06:02:02;2.97;;;1.10;;
78013;SDS011;67222;50.182;8.734;2023-02-03T06:04:27;1.80;;;1.10;;
78013;SDS011;67222;50.182;8.734;2023-02-03T06:06:53;2.40;;;1.17;;
78013;SDS011;67222;50.182;8.734;2023-02-03T06:09:18;2.33;;;1.10;;
78013;SDS011;67222;50.182;8.734;2023-02-03T06:11:43;2.57;;;0.90;;
78013;SDS011;67222;50.182;8.734;2023-02-03T06:14:10;1.88;;;1.02;;
78013;SDS011;67222;50.182;8.734;2023-02-03T06:16:35;2.17;;;0.97;;
78013;SDS011;67222;50.182;8.734;2023-02-03T06:19:00;2.93;;;1.00;;
78013;SDS011;67222;50.182;8.734;2023-02-03T06:21:26;2.45;;;1.10;;
78013;SDS011;67222;50.182;8.734;2023-02-03T06:23:52;3.25;;;1.00;;
78013;SDS011;67222;50.182;8.734;2023-02-03T06:26:18;3.03;;;1.23;;
78013;SDS011;67222;50.182;8.734;2023-02-03T06:28:44;2.17;;;0.90;;
78013;SDS011;67222;50.182;8.734;2023-02-03T06:31:09;3.23;;;0.97;;
78013;SDS011;67222;50.182;8.734;2023-02-03T06:33:34;2.90;;;1.00;;
78013;SDS011;67222;50.182;8.734;2023-02-03T06:36:00;3.13;;;1.10;;
78013;SDS011;67222;50.182;8.734;2023-02-03T06:38:25;2.00;;;1.02;;
78013;SDS011;67222;50.182;8.734;2023-02-03T06:40:51;2.33;;;1.33;;
78013;SDS011;67222;50.182;8.734;2023-02-03T06:43:16;2.85;;;1.25;;
78013;SDS011;67222;50.182;8.734;2023-02-03T06:45:43;1.73;;;0.88;;
78013;SDS011;67222;50.182;8.734;2023-02-03T06:48:10;2.40;;;1.05;;
78013;SDS011;67222;50.182;8.734;2023-02-03T06:50:35;3.20;;;0.98;;
78013;SDS011;67222;50.182;8.734;2023-02-03T06:53:00;2.67;;;1.00;;
78013;SDS011;67222;50.182;8.734;2023-02-03T06:55:26;3.07;;;0.93;;
78013;SDS011;67222;50.182;8.734;2023-02-03T06:57:51;2.27;;;1.30;;
78013;SDS011;67222;50.182;8.734;2023-02-03T07:00:16;2.63;;;1.10;;
78013;SDS011;67222;50.182;8.734;2023-02-03T07:02:42;2.38;;;0.95;;
78013;SDS011;67222;50.182;8.734;2023-02-03T07:05:08;3.53;;;1.10;;
78013;SDS011;67222;50.182;8.734;2023-02-03T07:07:34;2.35;;;1.13;;
78013;SDS011;67222;50.182;8.734;2023-02-03T07:10:00;3.42;;;1.38;;
78013;SDS011;67222;50.182;8.734;2023-02-03T07:12:26;2.35;;;0.90;;
78013;SDS011;67222;50.182;8.734;2023-02-03T07:14:52;2.80;;;1.30;;
78013;SDS011;67222;50.182;8.734;2023-02-03T07:17:17;1.90;;;1.00;;
78013;SDS011;67222;50.182;8.734;2023-02-03T07:19:42;3.20;;;1.30;;
78013;SDS011;67222;50.182;8.734;2023-02-03T07:22:10;3.43;;;1.30;;
78013;SDS011;67222;50.182;8.734;2023-02-03T07:24:36;5.38;;;2.03;;
78013;SDS011;67222;50.182;8.734;2023-02-03T07:27:01;3.30;;;1.70;;
78013;SDS011;67222;50.182;8.734;2023-02-03T07:29:27;3.83;;;1.90;;
78013;SDS011;67222;50.182;8.734;2023-02-03T07:31:52;5.45;;;1.88;;
78013;SDS011;67222;50.182;8.734;2023-02-03T07:34:17;5.40;;;2.30;;
78013;SDS011;67222;50.182;8.734;2023-02-03T07:36:42;3.03;;;1.60;;
78013;SDS011;67222;50.182;8.734;2023-02-03T07:39:08;2.90;;;1.30;;
78013;SDS011;67222;50.182;8.734;2023-02-03T07:41:33;3.60;;;1.60;;
78013;SDS011;67222;50.182;8.734;2023-02-03T07:43:58;2.40;;;1.07;;
78013;SDS011;67222;50.182;8.734;2023-02-03T07:46:24;2.27;;;1.13;;
78013;SDS011;67222;50.182;8.734;2023-02-03T07:48:49;4.65;;;1.13;;
78013;SDS011;67222;50.182;8.734;2023-02-03T07:51:14;2.00;;;1.10;;
78013;SDS011;67222;50.182;8.734;2023-02-03T07:53:39;1.77;;;1.00;;
78013;SDS011;67222;50.182;8.734;2023-02-03T07:56:05;3.63;;;1.23;;
78013;SDS011;67222;50.182;8.734;2023-02-03T07:58:30;6.87;;;2.17;;
78013;SDS011;67222;50.182;8.734;2023-02-03T08:00:56;4.82;;;1.15;;
78013;SDS011;67222;50.182;8.734;2023-02-03T08:03:22;5.15;;;2.28;;
78013;SDS011;67222;50.182;8.734;2023-02-03T08:05:48;2.23;;;0.90;;
78013;SDS011;67222;50.182;8.734;2023-02-03T08:08:13;2.13;;;0.93;;
78013;SDS011;67222;50.182;8.734;2023-02-03T08:10:39;2.75;;;1.30;;
78013;SDS011;67222;50.182;8.734;2023-02-03T08:13:04;3.40;;;1.30;;
78013;SDS011;67222;50.182;8.734;2023-02-03T08:15:30;3.65;;;1.00;;
78013;SDS011;67222;50.182;8.734;2023-02-03T08:17:55;2.33;;;1.00;;
78013;SDS011;67222;50.182;8.734;2023-02-03T08:20:20;2.63;;;1.27;;
78013;SDS011;67222;50.182;8.734;2023-02-03T08:22:46;2.15;;;1.10;;
78013;SDS011;67222;50.182;8.734;2023-02-03T08:25:11;2.93;;;1.10;;
78013;SDS011;67222;50.182;8.734;2023-02-03T08:27:37;1.80;;;1.10;;
78013;SDS011;67222;50.182;8.734;2023-02-03T08:30:02;1.73;;;1.00;;
78013;SDS011;67222;50.182;8.734;2023-02-03T08:32:29;3.15;;;1.00;;
78013;SDS011;67222;50.182;8.734;2023-02-03T08:34:54;2.43;;;0.97;;
78013;SDS011;67222;50.182;8.734;2023-02-03T08:37:20;2.95;;;1.20;;
78013;SDS011;67222;50.182;8.734;2023-02-03T08:39:50;2.88;;;0.77;;
78013;SDS011;67222;50.182;8.734;2023-02-03T08:42:16;2.13;;;1.13;;
78013;SDS011;67222;50.182;8.734;2023-02-03T08:44:41;2.92;;;0.85;;
78013;SDS011;67222;50.182;8.734;2023-02-03T08:47:08;3.25;;;0.98;;
78013;SDS011;67222;50.182;8.734;2023-02-03T08:49:34;2.30;;;0.70;;
78013;SDS011;67222;50.182;8.734;2023-02-03T08:52:03;4.43;;;1.00;;
78013;SDS011;67222;50.182;8.734;2023-02-03T08:54:29;3.65;;;0.90;;
78013;SDS011;67222;50.182;8.734;2023-02-03T08:56:54;3.20;;;1.30;;
78013;SDS011;67222;50.182;8.734;2023-02-03T08:59:20;3.67;;;1.00;;
78013;SDS011;67222;50.182;8.734;2023-02-03T09:01:45;4.00;;;1.27;;
78013;SDS011;67222;50.182;8.734;2023-02-03T09:04:12;3.42;;;1.20;;
78013;SDS011;67222;50.182;8.734;2023-02-03T09:06:38;3.28;;;0.93;;
78013;SDS011;67222;50.182;8.734;2023-02-03T09:09:04;2.92;;;0.77;;
78013;SDS011;67222;50.182;8.734;2023-02-03T09:11:29;3.45;;;0.90;;
78013;SDS011;67222;50.182;8.734;2023-02-03T09:13:55;2.28;;;0.85;;
78013;SDS011;67222;50.182;8.734;2023-02-03T09:16:21;2.63;;;0.63;;
78013;SDS011;67222;50.182;8.734;2023-02-03T09:18:48;2.10;;;0.65;;
78013;SDS011;67222;50.182;8.734;2023-02-03T09:21:14;2.25;;;0.80;;
78013;SDS011;67222;50.182;8.734;2023-02-03T09:23:42;1.38;;;0.50;;
78013;SDS011;67222;50.182;8.734;2023-02-03T09:26:10;2.38;;;0.63;;
78013;SDS011;67222;50.182;8.734;2023-02-03T09:28:36;2.45;;;0.80;;
78013;SDS011;67222;50.182;8.734;2023-02-03T09:31:06;1.95;;;0.65;;
78013;SDS011;67222;50.182;8.734;2023-02-03T09:33:33;2.90;;;0.60;;
78013;SDS011;67222;50.182;8.734;2023-02-03T09:35:59;3.72;;;1.00;;
78013;SDS011;67222;50.182;8.734;2023-02-03T09:38:25;3.40;;;1.17;;
78013;SDS011;67222;50.182;8.734;2023-02-03T09:41:02;1.92;;;0.70;;
78013;SDS011;67222;50.182;8.734;2023-02-03T09:46:17;2.10;;;0.90;;
78013;SDS011;67222;50.182;8.734;2023-02-03T09:48:47;1.15;;;0.40;;
78013;SDS011;67222;50.182;8.734;2023-02-03T09:51:18;1.27;;;0.52;;
78013;SDS011;67222;50.182;8.734;2023-02-03T09:53:47;1.92;;;0.50;;
78013;SDS011;67222;50.182;8.734;2023-02-03T09:56:29;2.38;;;0.68;;
78013;SDS011;67222;50.182;8.734;2023-02-03T09:58:57;1.25;;;0.65;;
78013;SDS011;67222;50.182;8.734;2023-02-03T10:01:24;2.75;;;0.60;;
78013;SDS011;67222;50.182;8.734;2023-02-03T10:06:48;1.27;;;0.50;;
78013;SDS011;67222;50.182;8.734;2023-02-03T10:12:20;1.52;;;0.57;;
78013;SDS011;67222;50.182;8.734;2023-02-03T10:17:49;1.52;;;0.60;;
78013;SDS011;67222;50.182;8.734;2023-02-03T10:20:22;2.88;;;0.85;;
78013;SDS011;67222;50.182;8.734;2023-02-03T10:22:53;2.95;;;0.70;;
78013;SDS011;67222;50.182;8.734;2023-02-03T10:25:30;2.47;;;0.90;;
78013;SDS011;67222;50.182;8.734;2023-02-03T10:28:02;3.35;;;0.88;;
78013;SDS011;67222;50.182;8.734;2023-02-03T10:30:35;4.70;;;1.15;;
78013;SDS011;67222;50.182;8.734;2023-02-03T10:33:12;2.78;;;0.82;;
78013;SDS011;67222;50.182;8.734;2023-02-03T10:35:44;3.45;;;0.98;;
78013;SDS011;67222;50.182;8.734;2023-02-03T10:38:15;3.50;;;1.13;;
78013;SDS011;67222;50.182;8.734;2023-02-03T10:40:49;1.60;;;0.63;;
78013;SDS011;67222;50.182;8.734;2023-02-03T10:43:15;2.92;;;0.90;;
78013;SDS011;67222;50.182;8.734;2023-02-03T10:45:59;2.83;;;0.60;;
78013;SDS011;67222;50.182;8.734;2023-02-03T10:48:24;2.05;;;0.98;;
78013;SDS011;67222;50.182;8.734;2023-02-03T10:50:50;2.13;;;0.85;;
78013;SDS011;67222;50.182;8.734;2023-02-03T10:55:45;3.35;;;0.70;;
78013;SDS011;67222;50.182;8.734;2023-02-03T10:58:32;1.20;;;0.60;;
78013;SDS011;67222;50.182;8.734;2023-02-03T11:01:05;2.00;;;1.20;;
78013;SDS011;67222;50.182;8.734;2023-02-03T11:03:34;2.22;;;0.77;;
78013;SDS011;67222;50.182;8.734;2023-02-03T11:06:04;1.98;;;0.70;;
78013;SDS011;67222;50.182;8.734;2023-02-03T11:08:32;1.98;;;0.90;;
78013;SDS011;67222;50.182;8.734;2023-02-03T11:11:02;3.03;;;0.60;;
78013;SDS011;67222;50.182;8.734;2023-02-03T11:13:30;2.65;;;0.60;;
78013;SDS011;67222;50.182;8.734;2023-02-03T11:16:05;1.15;;;0.40;;
78013;SDS011;67222;50.182;8.734;2023-02-03T11:21:27;1.55;;;0.50;;
78013;SDS011;67222;50.182;8.734;2023-02-03T11:24:00;2.42;;;0.55;;
78013;SDS011;67222;50.182;8.734;2023-02-03T11:26:28;0.93;;;0.50;;
78013;SDS011;67222;50.182;8.734;2023-02-03T11:28:59;2.60;;;0.70;;
78013;SDS011;67222;50.182;8.734;2023-02-03T11:31:30;3.47;;;0.63;;
78013;SDS011;67222;50.182;8.734;2023-02-03T11:34:02;3.42;;;1.17;;
78013;SDS011;67222;50.182;8.734;2023-02-03T11:36:39;1.92;;;0.50;;
78013;SDS011;67222;50.182;8.734;2023-02-03T11:39:09;2.00;;;0.60;;
78013;SDS011;67222;50.182;8.734;2023-02-03T11:41:40;0.80;;;0.50;;
78013;SDS011;67222;50.182;8.734;2023-02-03T11:44:15;3.00;;;0.70;;
78013;SDS011;67222;50.182;8.734;2023-02-03T11:46:43;2.45;;;0.50;;
78013;SDS011;67222;50.182;8.734;2023-02-03T11:49:30;2.42;;;0.57;;
78013;SDS011;67222;50.182;8.734;2023-02-03T11:52:05;2.10;;;0.88;;
78013;SDS011;67222;50.182;8.734;2023-02-03T11:57:27;7.45;;;1.55;;
78013;SDS011;67222;50.182;8.734;2023-02-03T12:16:25;2.15;;;0.68;;
78013;SDS011;67222;50.182;8.734;2023-02-03T12:21:56;5.20;;;0.70;;
78013;SDS011;67222;50.182;8.734;2023-02-03T12:27:39;2.10;;;0.70;;
78013;SDS011;67222;50.182;8.734;2023-02-03T12:30:14;2.17;;;0.70;;
78013;SDS011;67222;50.182;8.734;2023-02-03T12:33:19;2.70;;;0.70;;
78013;SDS011;67222;50.182;8.734;2023-02-03T12:35:45;1.63;;;0.70;;
78013;SDS011;67222;50.182;8.734;2023-02-03T12:38:39;5.20;;;1.38;;
78013;SDS011;67222;50.182;8.734;2023-02-03T12:41:15;6.47;;;2.08;;
78013;SDS011;67222;50.182;8.734;2023-02-03T12:43:46;4.13;;;1.70;;
78013;SDS011;67222;50.182;8.734;2023-02-03T12:57:53;4.13;;;1.08;;
78013;SDS011;67222;50.182;8.734;2023-02-03T13:08:42;3.70;;;0.95;;
78013;SDS011;67222;50.182;8.734;2023-02-03T13:11:18;2.65;;;1.10;;
78013;SDS011;67222;50.182;8.734;2023-02-03T13:13:53;2.58;;;1.40;;
78013;SDS011;67222;50.182;8.734;2023-02-03T13:16:25;2.35;;;1.20;;
78013;SDS011;67222;50.182;8.734;2023-02-03T13:19:04;2.10;;;0.90;;
78013;SDS011;67222;50.182;8.734;2023-02-03T13:21:35;3.78;;;1.23;;
78013;SDS011;67222;50.182;8.734;2023-02-03T13:24:01;3.47;;;0.80;;
78013;SDS011;67222;50.182;8.734;2023-02-03T13:26:35;2.47;;;1.20;;
78013;SDS011;67222;50.182;8.734;2023-02-03T13:42:38;2.70;;;1.10;;
78013;SDS011;67222;50.182;8.734;2023-02-03T13:45:14;2.58;;;1.02;;
78013;SDS011;67222;50.182;8.734;2023-02-03T13:47:50;3.00;;;1.00;;
78013;SDS011;67222;50.182;8.734;2023-02-03T13:50:20;3.17;;;1.33;;
78013;SDS011;67222;50.182;8.734;2023-02-03T13:58:04;1.98;;;0.70;;
78013;SDS011;67222;50.182;8.734;2023-02-03T14:03:17;2.10;;;0.80;;
78013;SDS011;67222;50.182;8.734;2023-02-03T14:06:03;4.32;;;1.17;;
78013;SDS011;67222;50.182;8.734;2023-02-03T14:16:28;4.32;;;1.50;;
78013;SDS011;67222;50.182;8.734;2023-02-03T14:18:58;2.95;;;1.50;;
78013;SDS011;67222;50.182;8.734;2023-02-03T14:21:24;3.42;;;1.50;;
78013;SDS011;67222;50.182;8.734;2023-02-03T14:23:55;5.13;;;1.70;;
78013;SDS011;67222;50.182;8.734;2023-02-03T14:26:27;2.45;;;1.45;;
78013;SDS011;67222;50.182;8.734;2023-02-03T14:28:59;3.22;;;1.60;;
78013;SDS011;67222;50.182;8.734;2023-02-03T14:31:26;2.00;;;1.30;;
78013;SDS011;67222;50.182;8.734;2023-02-03T14:33:57;4.20;;;1.38;;
78013;SDS011;67222;50.182;8.734;2023-02-03T14:50:02;2.60;;;0.98;;
78013;SDS011;67222;50.182;8.734;2023-02-03T14:56:06;1.67;;;0.98;;
78013;SDS011;67222;50.182;8.734;2023-02-03T14:58:43;3.10;;;1.10;;
78013;SDS011;67222;50.182;8.734;2023-02-03T15:01:22;2.95;;;1.52;;
78013;SDS011;67222;50.182;8.734;2023-02-03T15:04:19;3.08;;;1.05;;
78013;SDS011;67222;50.182;8.734;2023-02-03T15:06:47;3.17;;;1.23;;
78013;SDS011;67222;50.182;8.734;2023-02-03T15:12:01;2.85;;;1.20;;
78013;SDS011;67222;50.182;8.734;2023-02-03T15:14:28;4.38;;;1.23;;
78013;SDS011;67222;50.182;8.734;2023-02-03T15:17:00;2.75;;;1.08;;
78013;SDS011;67222;50.182;8.734;2023-02-03T15:19:33;4.47;;;2.35;;
78013;SDS011;67222;50.182;8.734;2023-02-03T15:22:15;4.18;;;1.67;;
78013;SDS011;67222;50.182;8.734;2023-02-03T15:24:46;2.78;;;1.50;;
78013;SDS011;67222;50.182;8.734;2023-02-03T15:27:22;3.95;;;1.27;;
78013;SDS011;67222;50.182;8.734;2023-02-03T15:29:49;2.60;;;1.10;;
78013;SDS011;67222;50.182;8.734;2023-02-03T15:32:17;3.15;;;1.42;;
78013;SDS011;67222;50.182;8.734;2023-02-03T15:34:49;3.72;;;1.42;;
78013;SDS011;67222;50.182;8.734;2023-02-03T15:45:37;2.38;;;1.15;;
78013;SDS011;67222;50.182;8.734;2023-02-03T15:50:41;3.87;;;1.50;;
78013;SDS011;67222;50.182;8.734;2023-02-03T15:53:09;4.30;;;1.45;;
78013;SDS011;67222;50.182;8.734;2023-02-03T15:55:44;3.47;;;1.77;;
78013;SDS011;67222;50.182;8.734;2023-02-03T15:58:22;2.85;;;1.33;;
78013;SDS011;67222;50.182;8.734;2023-02-03T16:00:54;3.45;;;1.40;;
78013;SDS011;67222;50.182;8.734;2023-02-03T16:03:44;3.22;;;1.42;;
78013;SDS011;67222;50.182;8.734;2023-02-03T16:08:49;6.00;;;1.10;;
78013;SDS011;67222;50.182;8.734;2023-02-03T16:11:19;3.28;;;1.42;;
78013;SDS011;67222;50.182;8.734;2023-02-03T16:13:45;3.47;;;1.80;;
78013;SDS011;67222;50.182;8.734;2023-02-03T16:16:23;4.22;;;1.77;;
78013;SDS011;67222;50.182;8.734;2023-02-03T16:18:58;6.05;;;2.85;;
78013;SDS011;67222;50.182;8.734;2023-02-03T16:21:35;9.18;;;3.97;;
78013;SDS011;67222;50.182;8.734;2023-02-03T16:32:36;4.90;;;2.35;;
78013;SDS011;67222;50.182;8.734;2023-02-03T16:35:21;9.82;;;4.47;;
78013;SDS011;67222;50.182;8.734;2023-02-03T16:38:06;6.80;;;1.90;;
78013;SDS011;67222;50.182;8.734;2023-02-03T16:40:57;5.43;;;2.67;;
78013;SDS011;67222;50.182;8.734;2023-02-03T16:43:40;7.13;;;3.50;;
78013;SDS011;67222;50.182;8.734;2023-02-03T16:46:24;7.35;;;2.47;;
78013;SDS011;67222;50.182;8.734;2023-02-03T16:49:08;7.03;;;3.40;;
78013;SDS011;67222;50.182;8.734;2023-02-03T16:51:52;5.15;;;2.70;;
78013;SDS011;67222;50.182;8.734;2023-02-03T16:54:18;5.70;;;2.78;;
78013;SDS011;67222;50.182;8.734;2023-02-03T16:56:43;6.87;;;3.10;;
78013;SDS011;67222;50.182;8.734;2023-02-03T16:59:09;5.25;;;2.50;;
78013;SDS011;67222;50.182;8.734;2023-02-03T17:01:34;4.35;;;2.38;;
78013;SDS011;67222;50.182;8.734;2023-02-03T17:04:00;4.35;;;2.25;;
78013;SDS011;67222;50.182;8.734;2023-02-03T17:06:26;4.03;;;2.33;;
78013;SDS011;67222;50.182;8.734;2023-02-03T17:08:52;5.72;;;2.50;;
78013;SDS011;67222;50.182;8.734;2023-02-03T17:11:19;4.50;;;2.75;;
78013;SDS011;67222;50.182;8.734;2023-02-03T17:13:46;4.75;;;2.70;;
78013;SDS011;67222;50.182;8.734;2023-02-03T17:16:17;4.78;;;3.00;;
78013;SDS011;67222;50.182;8.734;2023-02-03T17:18:47;5.22;;;3.10;;
78013;SDS011;67222;50.182;8.734;2023-02-03T17:21:15;5.15;;;2.28;;
78013;SDS011;67222;50.182;8.734;2023-02-03T17:23:41;6.15;;;3.03;;
78013;SDS011;67222;50.182;8.734;2023-02-03T17:26:07;6.45;;;2.75;;
78013;SDS011;67222;50.182;8.734;2023-02-03T17:28:33;5.97;;;2.50;;
78013;SDS011;67222;50.182;8.734;2023-02-03T17:30:59;5.50;;;2.67;;
78013;SDS011;67222;50.182;8.734;2023-02-03T17:38:29;6.95;;;3.05;;
78013;SDS011;67222;50.182;8.734;2023-02-03T17:40:55;9.23;;;2.65;;
78013;SDS011;67222;50.182;8.734;2023-02-03T17:43:21;5.50;;;2.85;;
78013;SDS011;67222;50.182;8.734;2023-02-03T17:45:46;4.70;;;2.58;;
78013;SDS011;67222;50.182;8.734;2023-02-03T17:48:12;6.47;;;3.00;;
78013;SDS011;67222;50.182;8.734;2023-02-03T17:50:37;7.00;;;3.03;;
78013;SDS011;67222;50.182;8.734;2023-02-03T17:53:05;6.80;;;2.87;;
78013;SDS011;67222;50.182;8.734;2023-02-03T17:55:31;5.10;;;3.20;;
78013;SDS011;67222;50.182;8.734;2023-02-03T17:57:57;5.03;;;2.83;;
78013;SDS011;67222;50.182;8.734;2023-02-03T18:00:22;6.82;;;1.98;;
78013;SDS011;67222;50.182;8.734;2023-02-03T18:02:49;6.00;;;1.83;;
78013;SDS011;67222;50.182;8.734;2023-02-03T18:05:15;4.30;;;1.50;;
78013;SDS011;67222;50.182;8.734;2023-02-03T18:07:40;6.18;;;1.75;;
78013;SDS011;67222;50.182;8.734;2023-02-03T18:10:06;6.47;;;1.50;;
78013;SDS011;67222;50.182;8.734;2023-02-03T18:12:32;8.13;;;1.85;;
78013;SDS011;67222;50.182;8.734;2023-02-03T18:14:58;8.83;;;1.40;;
78013;SDS011;67222;50.182;8.734;2023-02-03T18:17:23;4.20;;;1.40;;
78013;SDS011;67222;50.182;8.734;2023-02-03T18:19:48;9.32;;;1.52;;
78013;SDS011;67222;50.182;8.734;2023-02-03T18:22:13;6.67;;;1.20;;
78013;SDS011;67222;50.182;8.734;2023-02-03T18:24:39;6.90;;;1.50;;
78013;SDS011;67222;50.182;8.734;2023-02-03T18:27:05;5.72;;;1.50;;
78013;SDS011;67222;50.182;8.734;2023-02-03T18:29:30;5.90;;;1.50;;
78013;SDS011;67222;50.182;8.734;2023-02-03T18:31:55;5.77;;;1.47;;
78013;SDS011;67222;50.182;8.734;2023-02-03T18:34:20;8.53;;;1.27;;
78013;SDS011;67222;50.182;8.734;2023-02-03T18:36:46;4.78;;;1.40;;
78013;SDS011;67222;50.182;8.734;2023-02-03T18:39:12;7.18;;;1.38;;
78013;SDS011;67222;50.182;8.734;2023-02-03T18:41:39;7.22;;;1.15;;
78013;SDS011;67222;50.182;8.734;2023-02-03T18:44:04;6.68;;;1.10;;
78013;SDS011;67222;50.182;8.734;2023-02-03T18:46:30;6.90;;;1.23;;
78013;SDS011;67222;50.182;8.734;2023-02-03T18:48:56;3.95;;;0.93;;
78013;SDS011;67222;50.182;8.734;2023-02-03T18:51:23;8.10;;;1.42;;
78013;SDS011;67222;50.182;8.734;2023-02-03T18:53:49;5.70;;;1.40;;
78013;SDS011;67222;50.182;8.734;2023-02-03T18:58:41;6.33;;;1.10;;
78013;SDS011;67222;50.182;8.734;2023-02-03T19:01:06;5.20;;;1.00;;
78013;SDS011;67222;50.182;8.734;2023-02-03T19:03:32;4.20;;;1.10;;
78013;SDS011;67222;50.182;8.734;2023-02-03T19:05:58;7.40;;;1.23;;
78013;SDS011;67222;50.182;8.734;2023-02-03T19:08:23;9.63;;;1.20;;
78013;SDS011;67222;50.182;8.734;2023-02-03T19:10:50;5.15;;;1.20;;
78013;SDS011;67222;50.182;8.734;2023-02-03T19:13:16;5.03;;;1.33;;
78013;SDS011;67222;50.182;8.734;2023-02-03T19:15:43;6.85;;;2.03;;
78013;SDS011;67222;50.182;8.734;2023-02-03T19:18:08;6.85;;;1.75;;
78013;SDS011;67222;50.182;8.734;2023-02-03T19:20:34;6.40;;;1.50;;
78013;SDS011;67222;50.182;8.734;2023-02-03T19:22:59;7.27;;;1.53;;
78013;SDS011;67222;50.182;8.734;2023-02-03T19:25:27;8.20;;;1.48;;
78013;SDS011;67222;50.182;8.734;2023-02-03T19:27:52;8.52;;;1.52;;
78013;SDS011;67222;50.182;8.734;2023-02-03T19:30:17;8.40;;;1.50;;
78013;SDS011;67222;50.182;8.734;2023-02-03T19:32:43;6.20;;;1.30;;
78013;SDS011;67222;50.182;8.734;2023-02-03T19:35:08;5.97;;;1.40;;
78013;SDS011;67222;50.182;8.734;2023-02-03T19:37:33;6.33;;;1.40;;
78013;SDS011;67222;50.182;8.734;2023-02-03T19:39:59;6.93;;;1.60;;
78013;SDS011;67222;50.182;8.734;2023-02-03T19:42:24;5.93;;;1.50;;
78013;SDS011;67222;50.182;8.734;2023-02-03T19:44:49;11.60;;;1.70;;
78013;SDS011;67222;50.182;8.734;2023-02-03T19:47:15;5.50;;;1.20;;
78013;SDS011;67222;50.182;8.734;2023-02-03T19:49:41;6.05;;;1.30;;
78013;SDS011;67222;50.182;8.734;2023-02-03T19:52:06;8.90;;;1.80;;
78013;SDS011;67222;50.182;8.734;2023-02-03T19:54:34;11.73;;;1.65;;
78013;SDS011;67222;50.182;8.734;2023-02-03T19:56:59;8.25;;;1.52;;
78013;SDS011;67222;50.182;8.734;2023-02-03T19:59:25;10.52;;;2.05;;
78013;SDS011;67222;50.182;8.734;2023-02-03T20:01:51;5.40;;;1.98;;
78013;SDS011;67222;50.182;8.734;2023-02-03T20:04:16;7.88;;;1.77;;
78013;SDS011;67222;50.182;8.734;2023-02-03T20:06:42;7.47;;;1.50;;
78013;SDS011;67222;50.182;8.734;2023-02-03T20:09:07;7.63;;;1.40;;
78013;SDS011;67222;50.182;8.734;2023-02-03T20:11:32;7.97;;;1.92;;
78013;SDS011;67222;50.182;8.734;2023-02-03T20:13:58;9.32;;;1.70;;
78013;SDS011;67222;50.182;8.734;2023-02-03T20:16:23;8.83;;;1.73;;
78013;SDS011;67222;50.182;8.734;2023-02-03T20:18:48;8.25;;;2.10;;
78013;SDS011;67222;50.182;8.734;2023-02-03T20:21:14;8.05;;;1.95;;
78013;SDS011;67222;50.182;8.734;2023-02-03T20:23:39;5.87;;;1.60;;
78013;SDS011;67222;50.182;8.734;2023-02-03T20:26:04;11.73;;;2.43;;
78013;SDS011;67222;50.182;8.734;2023-02-03T20:28:30;7.15;;;2.83;;
78013;SDS011;67222;50.182;8.734;2023-02-03T20:30:57;7.47;;;1.92;;
78013;SDS011;67222;50.182;8.734;2023-02-03T20:33:27;5.82;;;2.20;;
78013;SDS011;67222;50.182;8.734;2023-02-03T20:35:54;11.60;;;2.65;;
78013;SDS011;67222;50.182;8.734;2023-02-03T20:38:20;15.40;;;2.70;;
78013;SDS011;67222;50.182;8.734;2023-02-03T20:40:46;6.68;;;2.25;;
78013;SDS011;67222;50.182;8.734;2023-02-03T20:43:16;10.10;;;2.83;;
78013;SDS011;67222;50.182;8.734;2023-02-03T20:45:43;9.38;;;1.90;;
78013;SDS011;67222;50.182;8.734;2023-02-03T20:48:12;8.10;;;2.37;;
78013;SDS011;67222;50.182;8.734;2023-02-03T20:50:39;6.90;;;2.08;;
78013;SDS011;67222;50.182;8.734;2023-02-03T20:53:14;6.82;;;1.88;;
78013;SDS011;67222;50.182;8.734;2023-02-03T20:55:50;11.15;;;2.20;;
78013;SDS011;67222;50.182;8.734;2023-02-03T20:58:26;7.18;;;2.17;;
78013;SDS011;67222;50.182;8.734;2023-02-03T21:00:54;6.57;;;2.03;;
78013;SDS011;67222;50.182;8.734;2023-02-03T21:03:21;9.70;;;2.42;;
78013;SDS011;67222;50.182;8.734;2023-02-03T21:06:13;7.95;;;1.88;;
78013;SDS011;67222;50.182;8.734;2023-02-03T21:11:11;6.90;;;1.83;;
78013;SDS011;67222;50.182;8.734;2023-02-03T21:13:39;6.10;;;1.83;;
78013;SDS011;67222;50.182;8.734;2023-02-03T21:16:17;7.80;;;1.88;;
78013;SDS011;67222;50.182;8.734;2023-02-03T21:18:58;8.48;;;2.03;;
78013;SDS011;67222;50.182;8.734;2023-02-03T21:21:28;6.40;;;1.60;;
78013;SDS011;67222;50.182;8.734;2023-02-03T21:23:58;9.63;;;1.80;;
78013;SDS011;67222;50.182;8.734;2023-02-03T21:26:25;9.75;;;2.72;;
78013;SDS011;67222;50.182;8.734;2023-02-03T21:28:58;6.93;;;1.80;;
78013;SDS011;67222;50.182;8.734;2023-02-03T21:31:26;8.68;;;2.20;;
78013;SDS011;67222;50.182;8.734;2023-02-03T21:33:56;8.23;;;1.90;;
78013;SDS011;67222;50.182;8.734;2023-02-03T21:36:24;7.22;;;1.70;;
78013;SDS011;67222;50.182;8.734;2023-02-03T21:38:53;10.38;;;2.40;;
78013;SDS011;67222;50.182;8.734;2023-02-03T21:41:20;8.13;;;2.45;;
78013;SDS011;67222;50.182;8.734;2023-02-03T21:43:51;6.20;;;2.13;;
78013;SDS011;67222;50.182;8.734;2023-02-03T21:46:21;6.45;;;2.10;;
78013;SDS011;67222;50.182;8.734;2023-02-03T21:48:53;7.07;;;2.20;;
78013;SDS011;67222;50.182;8.734;2023-02-03T21:51:20;9.75;;;1.88;;
78013;SDS011;67222;50.182;8.734;2023-02-03T21:53:53;12.48;;;2.65;;
78013;SDS011;67222;50.182;8.734;2023-02-03T21:56:24;9.90;;;2.10;;
78013;SDS011;67222;50.182;8.734;2023-02-03T21:59:00;9.23;;;2.00;;
78013;SDS011;67222;50.182;8.734;2023-02-03T22:01:26;9.70;;;1.92;;
78013;SDS011;67222;50.182;8.734;2023-02-03T22:03:58;8.30;;;1.80;;
78013;SDS011;67222;50.182;8.734;2023-02-03T22:06:47;7.22;;;2.22;;
78013;SDS011;67222;50.182;8.734;2023-02-03T22:09:21;8.70;;;1.85;;
78013;SDS011;67222;50.182;8.734;2023-02-03T22:11:48;9.40;;;2.10;;
78013;SDS011;67222;50.182;8.734;2023-02-03T22:14:15;8.15;;;1.95;;
78013;SDS011;67222;50.182;8.734;2023-02-03T22:16:41;10.32;;;1.95;;
78013;SDS011;67222;50.182;8.734;2023-02-03T22:19:06;10.40;;;1.70;;
78013;SDS011;67222;50.182;8.734;2023-02-03T22:21:32;9.30;;;1.60;;
78013;SDS011;67222;50.182;8.734;2023-02-03T22:23:58;8.70;;;1.95;;
78013;SDS011;67222;50.182;8.734;2023-02-03T22:26:23;9.00;;;1.80;;
78013;SDS011;67222;50.182;8.734;2023-02-03T22:28:48;7.87;;;1.47;;
78013;SDS011;67222;50.182;8.734;2023-02-03T22:31:14;12.18;;;1.65;;
78013;SDS011;67222;50.182;8.734;2023-02-03T22:33:41;7.85;;;1.67;;
78013;SDS011;67222;50.182;8.734;2023-02-03T22:36:07;13.73;;;2.00;;
78013;SDS011;67222;50.182;8.734;2023-02-03T22:38:33;10.63;;;1.90;;
78013;SDS011;67222;50.182;8.734;2023-02-03T22:40:59;11.77;;;1.73;;
78013;SDS011;67222;50.182;8.734;2023-02-03T22:43:25;11.13;;;2.08;;
78013;SDS011;67222;50.182;8.734;2023-02-03T22:45:51;6.45;;;1.35;;
78013;SDS011;67222;50.182;8.734;2023-02-03T22:48:17;10.23;;;1.70;;
78013;SDS011;67222;50.182;8.734;2023-02-03T22:50:43;10.18;;;1.50;;